createdAt,value
2022-11-24T05:02:34.505Z,7.78
2022-11-24T05:05:01.300Z,7.81
2022-11-24T05:07:27.971Z,7.85
2022-11-24T05:10:28.121Z,7.86
2022-11-24T05:12:56.745Z,7.93
2022-11-24T05:15:23.653Z,7.93
2022-11-24T05:17:50.264Z,7.95
2022-11-24T05:20:18.253Z,8.03
2022-11-24T05:22:45.272Z,7.96
2022-11-24T05:27:52.696Z,7.99
2022-11-24T05:30:39.964Z,7.89
2022-11-24T05:33:12.408Z,7.90
2022-11-24T05:35:40.840Z,7.93
2022-11-24T05:38:07.555Z,7.92
2022-11-24T05:40:34.541Z,7.93
2022-11-24T05:43:01.183Z,8.04
2022-11-24T05:45:27.982Z,8.00
2022-11-24T05:47:54.608Z,8.07
2022-11-24T05:50:23.437Z,8.00
2022-11-24T05:52:50.520Z,7.99
2022-11-24T05:55:19.614Z,7.96
2022-11-24T05:57:46.858Z,8.07
2022-11-24T06:00:13.928Z,7.99
2022-11-24T06:02:41.056Z,7.99
2022-11-24T06:05:10.773Z,7.95
2022-11-24T06:07:37.378Z,8.06
2022-11-24T06:10:04.354Z,8.06
2022-11-24T06:12:30.930Z,7.97
2022-11-24T06:14:59.795Z,7.97
2022-11-24T06:17:26.307Z,7.99
2022-11-24T06:19:52.950Z,8.00
2022-11-24T06:22:19.809Z,8.04
2022-11-24T06:24:47.067Z,8.10
2022-11-24T06:27:14.428Z,8.07
2022-11-24T06:29:41.269Z,8.09
2022-11-24T06:32:08.089Z,8.02
2022-11-24T06:34:34.850Z,8.00
2022-11-24T06:37:04.295Z,7.89
2022-11-24T06:39:30.835Z,7.82
2022-11-24T06:41:57.409Z,7.82
2022-11-24T06:44:24.338Z,7.85
2022-11-24T06:46:51.062Z,7.74
2022-11-24T06:49:17.708Z,7.75
2022-11-24T06:51:44.313Z,7.75
2022-11-24T06:54:14.707Z,7.76
2022-11-24T06:56:41.271Z,7.86
2022-11-24T06:59:07.795Z,7.85
2022-11-24T07:01:34.513Z,7.89
2022-11-24T07:04:01.231Z,7.89
2022-11-24T07:06:28.499Z,7.93
2022-11-24T07:08:54.998Z,7.93
2022-11-24T07:11:23.485Z,7.87
2022-11-24T07:13:56.499Z,7.89
2022-11-24T07:16:26.075Z,7.83
2022-11-24T07:18:53.778Z,7.93
2022-11-24T07:21:22.198Z,7.96
2022-11-24T07:23:52.477Z,7.97
2022-11-24T07:26:19.825Z,8.02
2022-11-24T07:28:47.449Z,8.03
2022-11-24T07:31:19.555Z,8.07
2022-11-24T07:33:50.351Z,8.12
2022-11-24T07:36:17.426Z,8.12
2022-11-24T07:38:44.341Z,8.06
2022-11-24T07:41:13.204Z,7.87
2022-11-24T07:43:39.867Z,7.87
2022-11-24T07:46:10.078Z,7.87
2022-11-24T07:48:37.425Z,7.93
2022-11-24T07:51:05.026Z,8.06
2022-11-24T07:53:33.511Z,8.16
2022-11-24T07:56:04.431Z,8.23
2022-11-24T07:58:33.441Z,8.19
2022-11-24T08:01:09.435Z,8.29
2022-11-24T08:03:36.421Z,8.41
2022-11-24T08:08:50.403Z,8.68
2022-11-24T08:11:18.123Z,8.86
2022-11-24T08:13:44.902Z,8.78
2022-11-24T08:16:15.598Z,9.01
2022-11-24T08:18:43.156Z,9.13
2022-11-24T08:21:14.088Z,9.34
2022-11-24T08:23:42.473Z,9.55
2022-11-24T08:26:13.703Z,9.62
2022-11-24T08:28:40.233Z,9.57
2022-11-24T08:31:12.029Z,9.67
2022-11-24T08:33:39.453Z,9.68
2022-11-24T08:36:10.183Z,9.79
2022-11-24T08:38:37.068Z,9.94
2022-11-24T08:41:12.953Z,10.15
2022-11-24T08:43:39.946Z,10.36
2022-11-24T08:46:09.324Z,10.74
2022-11-24T08:48:39.158Z,10.87
2022-11-24T08:51:08.295Z,11.26
2022-11-24T08:53:35.060Z,11.63
2022-11-24T08:56:02.391Z,12.27
2022-11-24T08:58:30.156Z,12.93
2022-11-24T09:01:06.557Z,13.20
2022-11-24T09:03:34.537Z,13.50
2022-11-24T09:06:02.391Z,13.58
2022-11-24T09:08:32.701Z,13.54
2022-11-24T09:11:00.982Z,14.19
2022-11-24T09:13:27.934Z,14.32
2022-11-24T09:15:54.922Z,14.53
2022-11-24T09:18:28.885Z,14.53
2022-11-24T09:21:09.022Z,14.78
2022-11-24T09:23:36.368Z,14.68
2022-11-24T09:26:05.764Z,14.71
2022-11-24T09:28:32.666Z,14.87
2022-11-24T09:31:06.714Z,14.82
2022-11-24T09:33:33.991Z,15.36
2022-11-24T09:36:01.392Z,15.42
2022-11-24T09:38:28.379Z,15.57
2022-11-24T09:40:56.084Z,15.94
2022-11-24T09:43:45.835Z,15.56
2022-11-24T09:46:54.756Z,15.49
2022-11-24T09:49:42.308Z,15.35
2022-11-24T09:52:17.071Z,15.74
2022-11-24T09:54:57.651Z,15.53
2022-11-24T09:57:28.678Z,15.64
2022-11-24T10:00:04.219Z,15.81
2022-11-24T10:02:31.896Z,15.64
2022-11-24T10:09:00.212Z,15.74
2022-11-24T10:11:57.908Z,15.38
2022-11-24T10:14:37.321Z,15.29
2022-11-24T10:17:07.163Z,15.36
2022-11-24T10:19:47.438Z,15.12
2022-11-24T10:22:45.139Z,14.82
2022-11-24T10:25:25.344Z,15.03
2022-11-24T10:28:02.048Z,14.91
2022-11-24T10:30:29.502Z,13.90
2022-11-24T10:33:03.796Z,13.65
2022-11-24T10:35:40.727Z,13.26
2022-11-24T10:38:20.031Z,12.90
2022-11-24T10:41:15.121Z,12.78
2022-11-24T10:43:43.063Z,12.73
2022-11-24T10:46:09.879Z,12.69
2022-11-24T10:48:50.503Z,12.65
2022-11-24T10:51:44.642Z,12.69
2022-11-24T10:54:17.405Z,12.75
2022-11-24T10:56:46.073Z,13.06
2022-11-24T10:59:35.557Z,13.83
2022-11-24T11:02:04.900Z,14.77
2022-11-24T11:04:35.347Z,15.31
2022-11-24T11:07:23.917Z,16.04
2022-11-24T11:09:51.122Z,17.08
2022-11-24T11:12:43.861Z,17.11
2022-11-24T11:15:26.500Z,17.36
2022-11-24T11:17:58.074Z,17.81
2022-11-24T11:20:31.328Z,18.14
2022-11-24T11:23:00.548Z,18.18
2022-11-24T11:25:33.983Z,17.58
2022-11-24T11:28:29.063Z,18.57
2022-11-24T11:31:22.391Z,18.88
2022-11-24T11:34:25.265Z,18.55
2022-11-24T11:36:59.935Z,18.78
2022-11-24T11:39:35.724Z,19.64
2022-11-24T11:42:53.618Z,19.63
2022-11-24T11:45:35.320Z,19.64
2022-11-24T11:48:01.849Z,19.99
2022-11-24T11:51:06.710Z,20.53
2022-11-24T11:54:00.750Z,20.56
2022-11-24T11:56:33.100Z,20.85
2022-11-24T11:59:20.949Z,19.94
2022-11-24T12:02:17.557Z,20.02
2022-11-24T12:04:54.023Z,19.94
2022-11-24T12:07:40.484Z,19.82
2022-11-24T12:10:17.040Z,20.37
2022-11-24T12:13:09.001Z,20.43
2022-11-24T12:15:58.096Z,20.05
2022-11-24T12:18:56.457Z,19.78
2022-11-24T12:21:41.494Z,19.97
2022-11-24T12:24:38.785Z,20.09
2022-11-24T12:27:26.442Z,20.24
2022-11-24T12:30:11.667Z,19.12
2022-11-24T12:33:00.312Z,19.87
2022-11-24T12:36:03.938Z,20.35
2022-11-24T12:38:54.527Z,20.69
2022-11-24T12:42:00.335Z,21.05
2022-11-24T12:44:58.530Z,20.62
2022-11-24T12:47:59.141Z,21.35
2022-11-24T12:50:29.191Z,21.18
2022-11-24T12:53:35.160Z,20.43
2022-11-24T12:56:10.133Z,19.63
2022-11-24T12:59:08.781Z,18.60
2022-11-24T13:02:12.540Z,17.10
2022-11-24T13:05:06.794Z,15.50
2022-11-24T13:07:46.777Z,14.70
2022-11-24T13:10:55.425Z,14.50
2022-11-24T13:13:14.946Z,14.33
2022-11-24T13:16:35.341Z,14.06
2022-11-24T13:18:53.378Z,13.95
2022-11-24T13:21:43.177Z,13.78
2022-11-24T13:24:22.576Z,13.62
2022-11-24T13:26:51.941Z,13.55
2022-11-24T13:29:27.706Z,13.31
2022-11-24T13:32:03.500Z,13.04
2022-11-24T13:34:39.201Z,13.16
2022-11-24T13:37:34.321Z,13.17
2022-11-24T13:40:12.501Z,13.09
2022-11-24T13:42:54.545Z,12.93
2022-11-24T13:45:38.837Z,12.88
2022-11-24T13:48:20.981Z,12.92
2022-11-24T13:50:51.532Z,12.79
2022-11-24T13:53:36.632Z,12.65
2022-11-24T13:56:03.153Z,12.53
2022-11-24T13:58:43.149Z,12.52
2022-11-24T14:01:17.463Z,12.42
2022-11-24T14:04:28.015Z,12.44
2022-11-24T14:06:50.101Z,12.30
2022-11-24T14:09:25.590Z,12.25
2022-11-24T14:12:16.957Z,12.05
2022-11-24T14:14:46.389Z,12.03
2022-11-24T14:17:18.743Z,11.90
2022-11-24T14:19:48.220Z,11.82
2022-11-24T14:22:41.359Z,11.72
2022-11-24T14:25:23.031Z,11.70
2022-11-24T14:27:49.709Z,11.70
2022-11-24T14:30:20.529Z,11.69
2022-11-24T14:33:02.103Z,11.62
2022-11-24T14:35:31.067Z,11.51
2022-11-24T14:37:58.361Z,11.38
2022-11-24T14:40:37.591Z,11.39
2022-11-24T14:43:06.304Z,11.35
2022-11-24T14:45:34.602Z,11.16
2022-11-24T14:48:01.190Z,11.15
2022-11-24T14:50:27.958Z,11.08
2022-11-24T14:52:58.339Z,11.01
2022-11-24T14:55:35.607Z,10.93
2022-11-24T14:58:02.279Z,11.00
2022-11-24T15:00:32.055Z,10.91
2022-11-24T15:03:17.637Z,10.87
2022-11-24T15:06:01.003Z,10.70
2022-11-24T15:08:37.333Z,10.68
2022-11-24T15:11:07.271Z,10.64
2022-11-24T15:13:37.486Z,10.60
2022-11-24T15:16:15.709Z,10.47
2022-11-24T15:18:55.028Z,10.40
2022-11-24T15:21:36.815Z,10.35
2022-11-24T15:24:17.852Z,10.28
2022-11-24T15:26:45.170Z,10.16
2022-11-24T15:29:13.526Z,10.26
2022-11-24T15:31:40.873Z,10.10
2022-11-24T15:34:12.341Z,10.08
2022-11-24T15:36:39.148Z,9.98
2022-11-24T15:39:06.008Z,9.92
2022-11-24T15:41:33.698Z,9.88
2022-11-24T15:44:00.324Z,9.82
2022-11-24T15:46:38.131Z,9.87
2022-11-24T15:49:06.114Z,9.75
2022-11-24T15:51:33.280Z,9.70
2022-11-24T15:54:01.274Z,9.67
2022-11-24T15:56:33.009Z,9.62
2022-11-24T15:59:03.490Z,9.55
2022-11-24T16:01:34.153Z,9.48
2022-11-24T16:04:01.879Z,9.48
2022-11-24T16:06:29.340Z,9.50
2022-11-24T16:08:56.166Z,9.55
2022-11-24T16:11:23.078Z,9.47
2022-11-24T16:13:53.213Z,9.46
2022-11-24T16:16:21.420Z,9.52
2022-11-24T16:18:48.220Z,9.46
2022-11-24T16:21:15.420Z,9.51
2022-11-24T16:23:42.103Z,9.57
2022-11-24T16:26:10.432Z,9.50
2022-11-24T16:28:37.028Z,9.48
2022-11-24T16:31:03.640Z,9.52
2022-11-24T16:33:30.522Z,9.46
2022-11-24T16:35:57.229Z,9.54
2022-11-24T16:38:23.902Z,9.54
2022-11-24T16:40:52.554Z,9.52
2022-11-24T16:43:19.265Z,9.58
2022-11-24T16:45:46.812Z,9.52
2022-11-24T16:48:13.599Z,9.48
2022-11-24T16:50:40.298Z,9.39
2022-11-24T16:53:10.594Z,9.31
2022-11-24T16:55:37.183Z,9.34
2022-11-24T16:58:05.258Z,9.29
2022-11-24T17:00:32.299Z,9.26
2022-11-24T17:02:58.821Z,9.30
2022-11-24T17:05:25.954Z,9.34
2022-11-24T17:07:52.806Z,9.30
2022-11-24T17:10:19.682Z,9.41
2022-11-24T17:12:46.421Z,9.40
2022-11-24T17:18:23.556Z,9.37
2022-11-24T17:20:46.729Z,9.34
2022-11-24T17:23:13.982Z,9.36
2022-11-24T17:25:40.881Z,9.40
2022-11-24T17:28:07.760Z,9.46
2022-11-24T17:30:37.321Z,9.48
2022-11-24T17:33:04.337Z,9.50
2022-11-24T17:35:30.943Z,9.37
2022-11-24T17:37:58.260Z,9.40
2022-11-24T17:40:29.071Z,9.40
2022-11-24T17:43:00.394Z,9.34
2022-11-24T17:45:28.305Z,9.37
2022-11-24T17:47:55.205Z,9.33
2022-11-24T17:50:25.723Z,9.27
2022-11-24T17:52:52.833Z,9.29
2022-11-24T17:55:19.368Z,9.23
2022-11-24T17:57:45.890Z,9.27
2022-11-24T18:00:13.206Z,9.18
2022-11-24T18:02:39.973Z,9.16
2022-11-24T18:05:07.585Z,9.12
2022-11-24T18:07:36.631Z,9.12
2022-11-24T18:10:03.504Z,9.05
2022-11-24T18:12:30.174Z,9.05
2022-11-24T18:14:56.793Z,9.05
2022-11-24T18:17:23.428Z,9.08
2022-11-24T18:19:49.968Z,9.02
2022-11-24T18:22:16.523Z,8.95
2022-11-24T18:24:43.016Z,8.91
2022-11-24T18:27:12.329Z,8.89
2022-11-24T18:29:38.866Z,8.93
2022-11-24T18:32:06.441Z,8.95
2022-11-24T18:34:33.386Z,8.95
2022-11-24T18:37:00.165Z,8.92
2022-11-24T18:39:28.317Z,8.91
2022-11-24T18:41:55.204Z,8.81
2022-11-24T18:44:21.817Z,8.82
2022-11-24T18:46:49.306Z,8.81
2022-11-24T18:49:15.882Z,8.72
2022-11-24T18:51:42.468Z,8.72
2022-11-24T18:54:09.024Z,8.83
2022-11-24T18:56:35.626Z,8.71
2022-11-24T18:59:02.419Z,8.72
2022-11-24T19:01:30.372Z,8.72
2022-11-24T19:03:59.264Z,8.75
2022-11-24T19:06:31.939Z,8.71
2022-11-24T19:09:00.681Z,8.68
2022-11-24T19:11:29.957Z,8.67
2022-11-24T19:13:56.686Z,8.61
2022-11-24T19:16:24.336Z,8.65
2022-11-24T19:18:53.978Z,8.61
2022-11-24T19:21:22.119Z,8.62
2022-11-24T19:23:49.586Z,8.64
2022-11-24T19:26:16.155Z,8.65
2022-11-24T19:28:42.715Z,8.57
2022-11-24T19:31:12.391Z,8.58
2022-11-24T19:33:39.562Z,8.65
2022-11-24T19:36:08.997Z,8.60
2022-11-24T19:38:35.928Z,8.54
2022-11-24T19:41:04.432Z,8.54
2022-11-24T19:43:32.061Z,8.67
2022-11-24T19:46:10.355Z,8.62
2022-11-24T19:48:39.473Z,8.60
2022-11-24T19:51:08.534Z,8.64
2022-11-24T19:53:36.127Z,8.61
2022-11-24T19:56:17.050Z,8.58
2022-11-24T19:58:43.965Z,8.62
2022-11-24T20:01:22.322Z,8.67
2022-11-24T20:03:55.812Z,8.75
2022-11-24T20:06:22.437Z,8.78
2022-11-24T20:08:49.473Z,8.78
2022-11-24T20:11:19.545Z,8.73
2022-11-24T20:13:47.281Z,8.75
2022-11-24T20:16:19.272Z,8.75
2022-11-24T20:18:47.894Z,8.79
2022-11-24T20:21:22.687Z,8.81
2022-11-24T20:24:07.824Z,8.86
2022-11-24T20:26:40.919Z,8.81
2022-11-24T20:29:10.234Z,8.75
2022-11-24T20:31:45.663Z,8.81
2022-11-24T20:34:16.095Z,8.85
2022-11-24T20:36:44.627Z,8.86
2022-11-24T20:39:20.438Z,8.81
2022-11-24T20:41:47.083Z,8.81
2022-11-24T20:44:15.878Z,8.93
2022-11-24T20:46:44.237Z,8.81
2022-11-24T20:49:14.812Z,8.73
2022-11-24T20:51:44.325Z,8.79
2022-11-24T20:54:12.977Z,8.72
2022-11-24T20:56:41.772Z,8.69
2022-11-24T20:59:12.289Z,8.71
2022-11-24T21:01:42.498Z,8.72
2022-11-24T21:04:13.501Z,8.68
2022-11-24T21:06:40.518Z,8.75
2022-11-24T21:09:08.687Z,8.73
2022-11-24T21:11:36.969Z,8.65
2022-11-24T21:14:04.105Z,8.69
2022-11-24T21:16:34.505Z,8.69
2022-11-24T21:19:04.111Z,8.76
2022-11-24T21:21:34.568Z,8.79
2022-11-24T21:24:07.465Z,8.75
2022-11-24T21:26:38.860Z,8.91
2022-11-24T21:29:07.210Z,8.89
2022-11-24T21:31:38.472Z,8.86
2022-11-24T21:34:07.385Z,8.88
2022-11-24T21:36:35.391Z,8.82
2022-11-24T21:39:03.339Z,8.92
2022-11-24T21:41:32.526Z,8.99
2022-11-24T21:43:59.208Z,8.93
2022-11-24T21:46:25.732Z,8.96
2022-11-24T21:48:52.408Z,9.06
2022-11-24T21:51:20.773Z,9.12
2022-11-24T21:53:47.921Z,9.12
2022-11-24T21:56:19.678Z,9.13
2022-11-24T21:58:47.467Z,9.19
2022-11-24T22:01:15.336Z,9.19
2022-11-24T22:03:42.137Z,9.03
2022-11-24T22:06:09.642Z,9.15
2022-11-24T22:08:36.258Z,9.24
2022-11-24T22:11:11.445Z,9.29
2022-11-24T22:13:38.236Z,9.36
2022-11-24T22:16:17.658Z,9.24
2022-11-24T22:18:45.405Z,9.36
2022-11-24T22:21:14.504Z,9.30
2022-11-24T22:23:42.471Z,9.36
2022-11-24T22:26:17.641Z,9.30
2022-11-24T22:28:45.138Z,9.33
2022-11-24T22:31:20.476Z,9.40
2022-11-24T22:33:47.374Z,9.46
2022-11-24T22:36:15.267Z,9.41
2022-11-24T22:38:42.609Z,9.46
2022-11-24T22:41:12.001Z,9.36
2022-11-24T22:43:40.055Z,9.36
2022-11-24T22:46:11.159Z,9.40
2022-11-24T22:48:38.922Z,9.47
2022-11-24T22:51:07.815Z,9.43
2022-11-24T22:53:34.371Z,9.48
2022-11-24T22:56:05.906Z,9.30
2022-11-24T22:58:33.374Z,9.23
